Time;durP1;ratioP1;P1;durP2;ratioP2;P2;SDS_P1;SDS_P2;PMS_P1;PMS_P2;Temp;Humidity;BMP_temperature;BMP_pressure;BME280_temperature;BME280_humidity;BME280_pressure;Samples;Min_cycle;Max_cycle;Signal;HPM_P1;HPM_P2
2021/07/18 00:06:35;;;;;;;;;;;;;;;;;;;;;
2021/07/18 00:09:42;;;;;;;22.75;9.00;;;16.70;99.90;;;;;;5765874;24;20020;-84
2021/07/18 00:30:51;;;;;;;21.85;9.55;;;16.60;99.90;;;;;;5869348;24;20018;-84
2021/07/18 00:33:54;;;;;;;24.48;9.23;;;16.60;99.90;;;;;;5870879;24;20030;-84
2021/07/18 00:37:09;;;;;;;20.40;10.10;;;16.60;99.90;;;;;;5972850;23;20105;-85
2021/07/18 00:47:53;;;;;;;27.52;10.88;;;16.50;99.90;;;;;;5764684;24;20048;-86
2021/07/18 00:51:04;;;;;;;25.80;10.60;;;16.50;99.90;;;;;;5663074;25;20025;-85
2021/07/18 00:54:13;;;;;;;24.73;11.00;;;16.50;99.90;;;;;;5663356;25;20025;-84
2021/07/18 00:56:51;;;;;;;20.33;10.25;;;16.40;99.90;;;;;;5663118;25;20022;-83
2021/07/18 01:00:19;;;;;;;;;;;;;;;;;;;;;
2021/07/18 01:09:52;;;;;;;25.27;10.30;;;16.40;99.90;;;;;;5616878;25;20018;-84
2021/07/18 01:34:53;;;;;;;25.25;10.60;;;16.20;99.90;;;;;;5817482;24;20389;-85
2021/07/18 01:37:44;;;;;;;23.42;10.45;;;16.20;99.90;;;;;;5815681;24;20086;-86
2021/07/18 01:40:39;;;;;;;26.70;11.57;;;16.10;99.90;;;;;;5797000;24;20479;-84
2021/07/18 01:43:54;;;;;;;27.50;11.65;;;16.20;99.90;;;;;;5873629;23;20107;-85
2021/07/18 01:46:34;;;;;;;25.63;11.23;;;16.20;99.90;;;;;;5992581;23;20103;-84
2021/07/18 01:49:11;;;;;;;22.15;10.50;;;16.10;99.90;;;;;;6101439;23;20026;-84
2021/07/18 01:51:55;;;;;;;24.73;11.25;;;16.10;99.90;;;;;;6078181;23;20021;-84
2021/07/18 01:54:36;;;;;;;33.92;11.60;;;16.10;99.90;;;;;;6105990;23;20010;-84
2021/07/18 01:57:25;;;;;;;24.00;10.38;;;16.10;99.90;;;;;;6080565;23;20344;-84
2021/07/18 02:00:00;;;;;;;24.35;11.70;;;16.10;99.90;;;;;;6041868;23;20047;-84
2021/07/18 02:05:47;;;;;;;23.60;11.10;;;16.00;99.90;;;;;;5955609;24;20016;-85
2021/07/18 02:08:59;;;;;;;22.63;10.80;;;16.10;99.90;;;;;;5956181;24;20488;-85
2021/07/18 02:12:03;;;;;;;24.77;10.50;;;16.10;99.90;;;;;;5956363;24;20043;-85
2021/07/18 02:14:45;;;;;;;21.75;10.73;;;16.10;99.90;;;;;;5956978;24;20028;-84
2021/07/18 02:17:21;;;;;;;20.02;10.85;;;16.00;99.90;;;;;;5979762;23;20365;-85
2021/07/18 02:19:56;;;;;;;19.10;10.25;;;16.00;99.90;;;;;;5956432;24;20036;-85
2021/07/18 02:22:37;;;;;;;24.48;11.10;;;16.10;99.90;;;;;;5956492;24;20063;-84
2021/07/18 02:25:06;;;;;;;23.00;10.57;;;16.10;99.90;;;;;;6001891;23;20023;-87
2021/07/18 02:27:34;;;;;;;18.42;10.40;;;16.10;99.90;;;;;;6007650;23;20020;-84
2021/07/18 02:30:04;;;;;;;28.30;11.15;;;16.00;99.90;;;;;;6008369;23;20459;-84
2021/07/18 02:32:35;;;;;;;24.30;11.30;;;16.00;99.90;;;;;;6017442;23;20022;-86
2021/07/18 02:35:03;;;;;;;27.25;11.07;;;16.00;99.90;;;;;;6008111;23;20039;-85
2021/07/18 02:37:30;;;;;;;27.55;12.10;;;16.00;99.90;;;;;;6007153;23;20043;-86
2021/07/18 02:40:03;;;;;;;27.30;11.82;;;15.90;99.90;;;;;;6007355;23;20477;-86
2021/07/18 02:42:34;;;;;;;26.48;11.15;;;16.00;99.90;;;;;;6075933;23;20018;-84
2021/07/18 02:45:01;;;;;;;26.13;12.13;;;16.00;99.90;;;;;;6121925;23;20021;-84
2021/07/18 02:47:27;;;;;;;29.00;11.52;;;15.90;99.90;;;;;;6129736;23;20021;-84
2021/07/18 02:49:53;;;;;;;24.63;11.73;;;15.90;99.90;;;;;;6105952;23;20020;-85
2021/07/18 02:52:19;;;;;;;25.10;12.20;;;15.90;99.90;;;;;;6154794;23;20342;-83
2021/07/18 02:54:45;;;;;;;25.58;12.15;;;15.90;99.90;;;;;;6106898;23;20076;-85
2021/07/18 02:57:11;;;;;;;26.30;11.63;;;15.90;99.90;;;;;;6107524;23;20021;-86
2021/07/18 02:59:37;;;;;;;21.58;11.30;;;15.90;99.90;;;;;;6106038;23;20121;-85
2021/07/18 03:02:03;;;;;;;25.17;12.65;;;15.90;99.90;;;;;;6164437;23;20096;-86
2021/07/18 03:04:32;;;;;;;25.50;12.30;;;15.90;99.90;;;;;;6154747;23;20399;-86
2021/07/18 03:07:12;;;;;;;22.92;11.80;;;15.90;99.90;;;;;;6128402;23;20333;-84
2021/07/18 03:09:59;;;;;;;25.33;10.93;;;15.70;99.90;;;;;;6124954;23;20013;-85
2021/07/18 03:15:50;;;;;;;25.70;11.18;;;15.90;99.90;;;;;;6153892;23;20014;-84
2021/07/18 03:18:16;;;;;;;28.35;12.63;;;15.90;99.90;;;;;;6103172;23;20117;-85
2021/07/18 03:20:42;;;;;;;18.00;10.98;;;15.90;99.90;;;;;;6128323;23;20060;-87
2021/07/18 03:23:08;;;;;;;23.83;11.77;;;15.90;99.90;;;;;;6138033;23;20013;-84
2021/07/18 03:25:34;;;;;;;24.38;12.25;;;15.90;99.90;;;;;;6103621;23;20098;-85
2021/07/18 03:28:00;;;;;;;26.90;12.00;;;15.90;99.90;;;;;;6152891;23;20434;-86
2021/07/18 03:30:26;;;;;;;24.42;12.73;;;15.80;99.90;;;;;;6137789;23;20016;-85
2021/07/18 03:32:52;;;;;;;25.98;12.40;;;15.90;99.90;;;;;;6104064;23;20025;-84
2021/07/18 03:35:20;;;;;;;24.95;11.65;;;15.90;99.90;;;;;;6104396;23;20017;-83
2021/07/18 03:37:46;;;;;;;23.38;12.93;;;15.90;99.90;;;;;;6129638;23;20022;-84
2021/07/18 03:40:14;;;;;;;27.73;12.63;;;16.00;99.90;;;;;;6138476;23;20025;-84
2021/07/18 03:42:41;;;;;;;25.42;12.48;;;15.90;99.90;;;;;;6154562;23;20064;-84
2021/07/18 03:45:09;;;;;;;21.10;12.68;;;16.00;99.90;;;;;;6151794;23;20017;-86
2021/07/18 03:47:35;;;;;;;26.42;12.27;;;15.90;99.90;;;;;;6128227;23;20010;-84
2021/07/18 03:50:05;;;;;;;24.95;12.02;;;16.00;99.90;;;;;;6128750;23;20089;-84
2021/07/18 03:52:31;;;;;;;18.80;11.50;;;15.90;99.90;;;;;;6128481;23;20072;-85
2021/07/18 03:55:00;;;;;;;22.25;11.70;;;16.00;99.90;;;;;;6128493;23;20014;-83
2021/07/18 03:57:29;;;;;;;31.70;12.10;;;16.00;99.90;;;;;;6128671;23;20104;-85
2021/07/18 03:59:55;;;;;;;20.75;11.90;;;15.90;99.90;;;;;;6128518;23;20399;-85
2021/07/18 04:02:21;;;;;;;23.30;12.25;;;15.90;99.90;;;;;;6128129;23;20032;-84
2021/07/18 04:04:47;;;;;;;23.35;11.68;;;15.90;99.90;;;;;;6128659;23;20014;-83
2021/07/18 04:07:13;;;;;;;22.23;11.68;;;15.90;99.90;;;;;;6128393;23;20109;-86
2021/07/18 04:09:39;;;;;;;22.98;10.93;;;16.00;99.90;;;;;;6130389;23;20037;-86
2021/07/18 04:12:05;;;;;;;21.45;11.23;;;16.00;99.90;;;;;;6140202;23;20369;-86
2021/07/18 04:14:34;;;;;;;19.52;10.68;;;16.10;99.90;;;;;;6130849;23;20014;-84
2021/07/18 04:17:05;;;;;;;20.55;10.48;;;16.10;99.90;;;;;;6130447;23;20017;-84
2021/07/18 04:19:37;;;;;;;19.48;10.30;;;16.20;99.90;;;;;;6130492;23;20020;-83
2021/07/18 04:22:04;;;;;;;19.70;10.88;;;16.30;99.90;;;;;;6156528;23;20021;-84
2021/07/18 04:24:30;;;;;;;17.45;10.07;;;16.30;99.90;;;;;;6130066;23;20050;-84
2021/07/18 04:26:56;;;;;;;20.13;10.65;;;16.30;99.90;;;;;;6130033;23;20058;-84
2021/07/18 04:29:22;;;;;;;17.58;10.50;;;16.40;99.90;;;;;;6130504;23;20090;-85
2021/07/18 04:31:48;;;;;;;18.50;9.80;;;16.20;99.90;;;;;;6129534;23;20017;-83
2021/07/18 04:34:14;;;;;;;19.90;10.38;;;16.40;99.90;;;;;;6106017;23;20022;-85
2021/07/18 04:36:39;;;;;;;24.98;10.77;;;16.40;99.90;;;;;;6130273;23;20407;-86
2021/07/18 04:39:09;;;;;;;15.02;9.63;;;16.50;99.90;;;;;;6130386;23;20022;-86
2021/07/18 04:41:35;;;;;;;18.02;10.20;;;16.40;99.90;;;;;;6139095;23;20072;-86
2021/07/18 04:44:01;;;;;;;16.67;10.05;;;16.80;99.90;;;;;;6130464;23;20056;-84
2021/07/18 04:46:27;;;;;;;16.35;10.30;;;17.00;99.90;;;;;;6154555;23;20010;-84
2021/07/18 04:48:53;;;;;;;18.30;9.98;;;16.90;99.90;;;;;;6139366;23;20021;-85
2021/07/18 04:51:19;;;;;;;16.30;10.15;;;17.00;99.90;;;;;;6105628;23;20010;-85
2021/07/18 04:53:45;;;;;;;20.05;10.23;;;16.90;99.90;;;;;;6130029;23;20016;-86
2021/07/18 04:56:11;;;;;;;21.40;10.10;;;16.90;99.90;;;;;;6129934;23;20398;-84
2021/07/18 04:58:37;;;;;;;19.27;9.98;;;16.90;99.90;;;;;;6130786;23;20013;-83
2021/07/18 05:01:05;;;;;;;15.25;10.02;;;17.00;99.90;;;;;;6130841;23;20005;-83
2021/07/18 05:03:31;;;;;;;16.70;10.20;;;16.90;99.90;;;;;;6130324;23;20338;-85
2021/07/18 05:05:57;;;;;;;18.83;9.75;;;17.00;99.90;;;;;;6130330;23;20043;-85
2021/07/18 05:08:25;;;;;;;19.20;10.05;;;17.00;99.90;;;;;;6105097;23;20334;-83
2021/07/18 05:10:52;;;;;;;17.60;9.50;;;17.10;99.90;;;;;;6105346;23;20457;-87
2021/07/18 05:13:18;;;;;;;18.70;9.07;;;17.20;99.90;;;;;;6130170;23;20128;-85
2021/07/18 05:15:44;;;;;;;16.45;10.23;;;17.20;99.90;;;;;;6166003;23;20049;-85
2021/07/18 05:18:12;;;;;;;18.40;9.48;;;17.30;99.90;;;;;;6129863;23;20017;-85
2021/07/18 05:20:38;;;;;;;17.58;9.50;;;17.40;99.90;;;;;;6140132;23;20268;-83
2021/07/18 05:23:04;;;;;;;18.52;10.13;;;17.40;99.90;;;;;;6140523;23;20084;-85
2021/07/18 05:25:30;;;;;;;16.85;8.98;;;17.50;99.90;;;;;;6141324;23;20406;-85
2021/07/18 05:27:56;;;;;;;19.90;8.85;;;17.50;99.90;;;;;;6140571;23;20032;-84
2021/07/18 05:30:22;;;;;;;14.57;8.68;;;17.50;99.90;;;;;;6140955;23;20010;-86
2021/07/18 05:32:48;;;;;;;16.85;8.35;;;17.60;99.90;;;;;;6105185;23;20021;-84
2021/07/18 05:35:17;;;;;;;18.23;9.15;;;17.70;99.90;;;;;;6105737;23;20017;-85
2021/07/18 05:37:46;;;;;;;15.68;8.80;;;17.70;99.90;;;;;;6105431;23;20138;-85
2021/07/18 05:40:12;;;;;;;14.82;8.80;;;17.70;99.90;;;;;;6129691;23;20104;-85
2021/07/18 05:42:38;;;;;;;16.23;8.50;;;17.80;99.90;;;;;;6104793;23;20426;-86
2021/07/18 05:45:06;;;;;;;15.52;8.80;;;17.80;99.90;;;;;;6099850;23;20069;-86
2021/07/18 05:47:36;;;;;;;14.30;8.60;;;17.80;99.90;;;;;;6124838;23;20014;-84
2021/07/18 05:50:03;;;;;;;14.02;8.57;;;17.90;99.90;;;;;;6124617;23;20041;-84
2021/07/18 05:52:30;;;;;;;14.55;8.60;;;17.90;99.90;;;;;;6100066;23;20034;-84
2021/07/18 05:54:58;;;;;;;14.98;8.40;;;18.00;99.90;;;;;;6125196;23;20013;-83
2021/07/18 05:57:24;;;;;;;14.00;7.90;;;18.10;99.90;;;;;;6124726;23;20453;-84
2021/07/18 05:59:50;;;;;;;15.98;8.13;;;18.20;99.90;;;;;;6124320;23;20121;-86
2021/07/18 06:02:16;;;;;;;18.77;8.77;;;18.20;99.90;;;;;;6123069;23;20025;-87
2021/07/18 06:04:51;;;;;;;15.18;7.68;;;18.30;99.90;;;;;;6124153;23;20018;-84
2021/07/18 06:07:18;;;;;;;12.90;7.32;;;18.30;99.90;;;;;;6124175;23;20081;-84
2021/07/18 06:09:49;;;;;;;13.95;7.95;;;18.40;99.90;;;;;;6124974;23;20013;-84
2021/07/18 06:12:23;;;;;;;18.83;8.13;;;18.40;99.90;;;;;;6099372;23;20367;-86
2021/07/18 06:14:58;;;;;;;13.48;7.45;;;18.50;99.90;;;;;;6110547;23;20013;-83
2021/07/18 06:17:24;;;;;;;12.88;7.80;;;18.50;99.90;;;;;;6122423;23;20025;-82
2021/07/18 06:19:51;;;;;;;19.40;8.02;;;18.50;99.90;;;;;;6123426;23;20141;-82
2021/07/18 06:22:17;;;;;;;13.02;7.80;;;18.60;99.90;;;;;;6123267;23;20065;-82
2021/07/18 06:24:42;;;;;;;16.85;7.68;;;18.80;99.90;;;;;;6133020;23;20018;-80
2021/07/18 06:27:09;;;;;;;12.88;7.45;;;18.90;99.90;;;;;;6124895;23;20036;-81
2021/07/18 06:29:35;;;;;;;12.25;7.05;;;18.90;99.90;;;;;;6122506;23;20414;-80
2021/07/18 06:32:01;;;;;;;14.45;6.43;;;19.00;99.90;;;;;;6132633;23;20061;-80
2021/07/18 06:34:27;;;;;;;11.15;6.28;;;19.20;99.90;;;;;;6122601;23;20435;-83
2021/07/18 06:36:53;;;;;;;15.15;6.57;;;19.30;99.90;;;;;;6124924;23;20017;-81
2021/07/18 06:39:19;;;;;;;12.77;7.47;;;19.30;99.90;;;;;;6133167;23;20014;-84
2021/07/18 06:41:46;;;;;;;13.40;7.55;;;19.40;99.90;;;;;;6122602;23;20049;-85
2021/07/18 06:44:12;;;;;;;17.05;7.22;;;19.40;99.90;;;;;;6129322;23;20088;-82
2021/07/18 06:46:40;;;;;;;16.00;7.18;;;19.50;99.90;;;;;;6163791;23;20041;-80
2021/07/18 06:49:06;;;;;;;17.88;7.75;;;19.60;99.90;;;;;;6164626;23;20341;-81
2021/07/18 06:51:34;;;;;;;11.95;7.25;;;19.60;99.90;;;;;;6127521;23;20017;-81
2021/07/18 06:54:01;;;;;;;14.27;7.20;;;19.70;99.90;;;;;;6164304;23;20024;-80
2021/07/18 06:56:28;;;;;;;15.13;7.57;;;19.70;99.90;;;;;;6164421;23;20014;-80
2021/07/18 06:58:54;;;;;;;11.43;6.82;;;19.70;99.90;;;;;;6156113;23;20013;-77
2021/07/18 07:01:20;;;;;;;13.70;7.50;;;19.70;99.90;;;;;;6103307;23;20064;-78
2021/07/18 07:03:45;;;;;;;14.40;7.53;;;19.70;99.90;;;;;;6154103;23;20013;-81
2021/07/18 07:06:12;;;;;;;13.18;6.68;;;19.80;99.90;;;;;;6127835;23;20049;-81
2021/07/18 07:08:39;;;;;;;12.57;7.20;;;19.80;99.90;;;;;;6164176;23;20014;-81
2021/07/18 07:11:05;;;;;;;15.60;7.43;;;19.80;99.90;;;;;;6163791;23;20720;-81
2021/07/18 07:13:35;;;;;;;17.48;7.57;;;19.80;99.90;;;;;;6131461;23;20033;-82
2021/07/18 07:16:01;;;;;;;15.32;8.70;;;19.90;99.90;;;;;;6152860;23;20025;-81
2021/07/18 07:18:27;;;;;;;12.13;6.97;;;20.00;99.90;;;;;;6127280;23;20014;-84
2021/07/18 07:20:53;;;;;;;9.60;6.60;;;20.00;99.90;;;;;;6104149;23;20016;-83
2021/07/18 07:23:19;;;;;;;10.15;6.85;;;20.00;99.90;;;;;;6138225;23;20010;-83
2021/07/18 07:25:45;;;;;;;10.40;5.82;;;20.10;99.90;;;;;;6127534;23;20016;-81
2021/07/18 07:28:11;;;;;;;13.73;6.72;;;20.20;99.90;;;;;;6160577;23;20013;-81
2021/07/18 07:30:37;;;;;;;12.65;7.20;;;20.20;99.90;;;;;;6129141;23;20009;-82
2021/07/18 07:33:04;;;;;;;13.80;7.53;;;20.30;99.90;;;;;;6137580;23;20013;-80
2021/07/18 07:35:32;;;;;;;15.68;8.00;;;20.40;99.90;;;;;;6153720;23;20097;-83
2021/07/18 07:38:05;;;;;;;13.38;7.80;;;20.50;99.90;;;;;;6128543;23;20027;-83
2021/07/18 07:40:31;;;;;;;11.77;7.18;;;20.60;99.90;;;;;;6128819;23;20371;-85
2021/07/18 07:42:59;;;;;;;11.75;6.82;;;20.60;99.90;;;;;;6161595;23;20029;-81
2021/07/18 07:45:25;;;;;;;16.42;8.02;;;20.70;99.90;;;;;;6159088;23;20018;-82
2021/07/18 07:47:51;;;;;;;10.55;6.47;;;20.70;99.90;;;;;;6165186;23;20021;-79
2021/07/18 07:50:17;;;;;;;10.18;5.72;;;20.80;99.90;;;;;;6129794;23;20097;-82
2021/07/18 07:52:43;;;;;;;11.23;4.85;;;20.90;99.90;;;;;;6129418;23;20092;-81
2021/07/18 07:55:10;;;;;;;9.60;4.13;;;21.00;99.90;;;;;;6105641;23;20018;-82
2021/07/18 07:57:37;;;;;;;7.35;3.78;;;21.00;99.90;;;;;;6138430;23;20020;-82
2021/07/18 08:00:10;;;;;;;9.32;4.63;;;21.00;99.90;;;;;;6156505;23;20035;-79
2021/07/18 08:02:37;;;;;;;8.93;4.32;;;21.10;99.90;;;;;;6155956;23;20092;-81
2021/07/18 08:05:04;;;;;;;6.72;4.20;;;21.20;99.90;;;;;;6131218;23;20493;-82
2021/07/18 08:07:30;;;;;;;8.07;4.38;;;21.30;99.90;;;;;;6165658;23;20044;-82
2021/07/18 08:09:57;;;;;;;11.15;4.50;;;21.30;99.90;;;;;;6131179;23;20020;-84
2021/07/18 08:12:23;;;;;;;8.45;4.10;;;21.30;99.90;;;;;;6106336;23;20041;-83
2021/07/18 08:14:49;;;;;;;7.50;3.60;;;21.30;99.90;;;;;;6105902;23;20095;-83
2021/07/18 08:17:15;;;;;;;6.63;3.38;;;21.30;99.90;;;;;;6165978;23;20088;-83
2021/07/18 08:19:46;;;;;;;5.90;2.95;;;21.40;99.90;;;;;;6107463;23;20024;-83
2021/07/18 08:22:13;;;;;;;6.75;3.33;;;21.40;99.90;;;;;;6139651;23;20020;-83
2021/07/18 08:24:39;;;;;;;7.82;3.72;;;21.40;99.90;;;;;;6127830;23;20685;-83
2021/07/18 08:27:05;;;;;;;8.25;3.50;;;21.50;99.90;;;;;;6102901;23;20310;-83
2021/07/18 08:29:30;;;;;;;8.25;4.07;;;21.60;99.90;;;;;;6129802;23;20068;-83
2021/07/18 08:31:59;;;;;;;7.70;4.43;;;21.70;99.90;;;;;;6128861;23;20017;-82
2021/07/18 08:34:26;;;;;;;7.88;4.28;;;21.70;99.90;;;;;;6139196;23;20017;-81
2021/07/18 08:36:52;;;;;;;7.18;4.40;;;21.70;99.90;;;;;;6104824;23;20040;-83
2021/07/18 08:39:18;;;;;;;13.88;4.20;;;21.70;99.90;;;;;;6155881;23;20025;-80
2021/07/18 08:41:44;;;;;;;6.18;3.88;;;21.90;99.90;;;;;;6155557;23;20020;-82
2021/07/18 08:44:12;;;;;;;11.57;3.70;;;22.00;99.90;;;;;;6129125;23;20021;-81
2021/07/18 08:46:39;;;;;;;8.18;3.78;;;22.10;99.90;;;;;;6154664;23;20025;-79
2021/07/18 08:49:09;;;;;;;8.63;4.60;;;22.10;99.90;;;;;;6155294;23;20017;-82
2021/07/18 08:51:36;;;;;;;6.97;3.50;;;22.20;99.90;;;;;;6138324;23;20017;-81
2021/07/18 08:54:02;;;;;;;6.32;3.88;;;22.30;99.90;;;;;;6104479;23;20480;-77
2021/07/18 08:56:32;;;;;;;4.70;3.15;;;22.40;99.90;;;;;;6164315;23;20033;-80
2021/07/18 08:59:03;;;;;;;8.05;3.08;;;22.40;99.90;;;;;;6157845;23;20064;-81
2021/07/18 09:01:29;;;;;;;6.90;2.95;;;22.50;99.90;;;;;;6165093;23;20013;-81
2021/07/18 09:03:55;;;;;;;5.97;3.05;;;22.60;99.90;;;;;;6129063;23;20714;-80
2021/07/18 09:06:21;;;;;;;5.65;2.85;;;22.50;99.90;;;;;;6139358;23;20024;-80
2021/07/18 09:08:49;;;;;;;4.95;2.50;;;22.60;99.90;;;;;;6130069;23;20043;-80
2021/07/18 09:11:25;;;;;;;3.20;2.10;;;22.70;99.90;;;;;;6130531;23;20017;-81
2021/07/18 09:14:17;;;;;;;5.60;2.35;;;22.70;99.90;;;;;;6129848;23;20090;-81
2021/07/18 09:16:43;;;;;;;5.32;2.20;;;22.90;99.90;;;;;;6127572;23;20017;-81
2021/07/18 09:19:21;;;;;;;8.00;2.58;;;22.90;99.90;;;;;;6130526;23;20013;-81
2021/07/18 09:22:05;;;;;;;3.40;1.65;;;23.00;99.90;;;;;;6130623;23;20010;-81
2021/07/18 09:24:49;;;;;;;2.58;1.70;;;23.10;99.90;;;;;;6105862;23;20472;-82
2021/07/18 09:27:16;;;;;;;4.60;1.98;;;23.30;99.90;;;;;;6156526;23;20017;-83
2021/07/18 09:29:56;;;;;;;5.35;2.10;;;23.30;99.90;;;;;;6130204;23;20017;-81
2021/07/18 09:32:24;;;;;;;4.93;2.05;;;23.40;99.90;;;;;;6165272;23;20391;-82
2021/07/18 09:35:00;;;;;;;6.57;1.75;;;23.50;99.90;;;;;;6129707;23;20017;-81
2021/07/18 09:37:28;;;;;;;5.13;1.73;;;23.70;99.90;;;;;;6156021;23;20009;-81
2021/07/18 09:39:57;;;;;;;5.32;2.17;;;23.70;99.90;;;;;;6154134;23;20009;-82
2021/07/18 09:42:31;;;;;;;6.25;1.63;;;23.60;99.90;;;;;;6128445;23;20323;-82
2021/07/18 09:44:58;;;;;;;5.20;1.73;;;23.70;99.90;;;;;;6155230;23;20044;-81
2021/07/18 09:47:24;;;;;;;4.82;1.83;;;23.70;99.90;;;;;;6164616;23;20339;-81
2021/07/18 09:49:50;;;;;;;4.63;1.95;;;23.70;99.90;;;;;;6129207;23;20028;-81
2021/07/18 09:52:27;;;;;;;4.38;2.20;;;23.80;99.90;;;;;;6102556;23;20013;-79
2021/07/18 09:54:58;;;;;;;3.50;2.13;;;23.80;99.90;;;;;;6103038;23;20017;-80
2021/07/18 09:57:37;;;;;;;5.88;2.58;;;23.80;99.90;;;;;;6129187;23;20028;-80
2021/07/18 10:00:11;;;;;;;7.93;2.67;;;23.90;99.90;;;;;;6166562;23;20009;-80
2021/07/18 10:02:40;;;;;;;7.47;2.47;;;24.10;99.90;;;;;;6129299;23;20013;-80
2021/07/18 10:05:06;;;;;;;5.10;1.88;;;24.30;99.90;;;;;;6132082;23;20017;-81
2021/07/18 10:07:35;;;;;;;4.22;2.00;;;24.30;99.90;;;;;;6156732;23;20017;-79
2021/07/18 10:10:06;;;;;;;4.70;1.90;;;24.20;99.90;;;;;;6140551;23;20009;-79
2021/07/18 10:12:33;;;;;;;3.92;2.00;;;24.50;99.90;;;;;;6139155;23;20037;-79
2021/07/18 10:14:59;;;;;;;9.00;1.90;;;24.60;99.90;;;;;;6164183;23;20438;-79
2021/07/18 10:17:28;;;;;;;5.43;1.98;;;24.50;99.90;;;;;;6163472;23;20465;-80
2021/07/18 10:19:54;;;;;;;6.13;2.75;;;24.50;99.90;;;;;;6127681;23;20081;-80
2021/07/18 10:22:20;;;;;;;5.22;3.03;;;24.60;99.90;;;;;;6151682;23;20013;-80
2021/07/18 10:24:48;;;;;;;5.60;1.90;;;24.70;99.90;;;;;;6128152;23;20022;-80
2021/07/18 10:27:19;;;;;;;5.95;1.70;;;24.90;99.90;;;;;;6164533;23;20024;-79
2021/07/18 10:29:46;;;;;;;6.38;1.70;;;25.00;99.90;;;;;;6155317;23;20426;-79
2021/07/18 10:32:15;;;;;;;5.05;1.92;;;25.10;99.90;;;;;;6163701;23;20018;-81
2021/07/18 10:34:41;;;;;;;5.07;1.92;;;25.00;99.90;;;;;;6154137;23;20106;-80
2021/07/18 10:37:11;;;;;;;4.90;2.20;;;24.90;99.90;;;;;;6164555;23;20045;-81
2021/07/18 10:39:42;;;;;;;6.80;2.13;;;25.10;99.90;;;;;;6128086;23;20044;-81
2021/07/18 10:42:31;;;;;;;6.70;2.00;;;25.20;99.90;;;;;;6138887;23;20080;-81
2021/07/18 10:45:18;;;;;;;5.35;2.10;;;24.90;99.90;;;;;;6124046;23;20024;-81
2021/07/18 10:48:05;;;;;;;6.38;2.28;;;24.80;99.90;;;;;;6134726;23;20033;-80
2021/07/18 10:50:43;;;;;;;5.93;2.28;;;24.90;99.90;;;;;;6123315;23;20017;-80
2021/07/18 10:53:29;;;;;;;7.10;2.30;;;25.00;99.90;;;;;;6098977;23;20387;-80
2021/07/18 10:55:56;;;;;;;9.38;2.20;;;24.90;99.90;;;;;;6122427;23;20061;-81
2021/07/18 10:58:40;;;;;;;6.93;2.45;;;25.10;99.90;;;;;;6122640;23;20024;-81
2021/07/18 11:01:22;;;;;;;5.47;2.60;;;24.90;99.90;;;;;;6125036;23;20010;-79
2021/07/18 11:03:50;;;;;;;8.20;2.75;;;25.00;99.90;;;;;;6124599;23;20017;-81
2021/07/18 11:06:19;;;;;;;7.85;2.15;;;24.70;99.90;;;;;;6132710;23;20024;-80
2021/07/18 11:09:06;;;;;;;5.18;2.22;;;25.00;99.90;;;;;;6134622;23;20018;-81
2021/07/18 11:11:44;;;;;;;14.43;5.73;;;24.70;99.90;;;;;;6147355;23;20022;-81
2021/07/18 11:14:28;;;;;;;8.15;3.25;;;24.70;99.90;;;;;;6123048;23;20014;-80
2021/07/18 11:16:59;;;;;;;9.77;3.85;;;25.00;99.90;;;;;;6134469;23;20013;-81
2021/07/18 11:19:37;;;;;;;10.57;3.90;;;25.30;99.90;;;;;;6133660;23;20021;-80
2021/07/18 11:22:04;;;;;;;4.95;2.47;;;25.30;99.90;;;;;;6148029;23;20013;-80
2021/07/18 11:24:55;;;;;;;8.70;2.80;;;25.00;99.90;;;;;;6109470;23;20038;-81
2021/07/18 11:27:28;;;;;;;7.32;2.80;;;25.20;99.90;;;;;;6122942;23;20351;-81
2021/07/18 11:29:56;;;;;;;7.43;2.67;;;25.40;99.90;;;;;;6123673;23;20104;-81
2021/07/18 11:32:25;;;;;;;6.78;2.38;;;25.20;99.90;;;;;;6124464;23;20014;-81
2021/07/18 11:34:53;;;;;;;10.52;2.42;;;25.30;99.90;;;;;;6125183;23;20013;-81
2021/07/18 11:37:20;;;;;;;5.78;1.75;;;25.70;99.90;;;;;;6123496;23;20010;-80
2021/07/18 11:39:50;;;;;;;6.00;2.20;;;25.40;99.90;;;;;;6122566;23;20049;-81
2021/07/18 11:42:17;;;;;;;4.45;1.83;;;25.30;99.90;;;;;;6125316;23;20010;-81
2021/07/18 11:44:46;;;;;;;4.95;1.90;;;25.60;99.90;;;;;;6125566;23;20018;-81
2021/07/18 11:47:16;;;;;;;5.65;2.28;;;25.90;99.90;;;;;;6099493;23;20032;-81
2021/07/18 11:49:45;;;;;;;8.80;1.88;;;25.40;99.90;;;;;;6109816;23;20010;-81
2021/07/18 11:52:14;;;;;;;5.40;2.08;;;25.30;99.90;;;;;;6122885;23;20018;-81
2021/07/18 11:54:43;;;;;;;8.68;2.20;;;25.60;99.90;;;;;;6125189;23;20115;-81
2021/07/18 11:57:17;;;;;;;10.10;2.00;;;25.50;99.90;;;;;;6135001;23;20022;-81
2021/07/18 11:59:45;;;;;;;6.43;2.20;;;25.30;99.90;;;;;;6122901;23;20451;-81
2021/07/18 12:02:12;;;;;;;5.68;2.15;;;25.30;99.90;;;;;;6134320;23;20241;-81
2021/07/18 12:04:38;;;;;;;4.90;2.20;;;25.30;99.90;;;;;;6122275;23;20522;-80
2021/07/18 12:07:07;;;;;;;5.80;2.00;;;25.30;99.90;;;;;;6121687;23;20514;-80
2021/07/18 12:09:38;;;;;;;5.60;2.00;;;25.30;99.90;;;;;;6123528;23;20061;-81
2021/07/18 12:12:09;;;;;;;5.50;2.08;;;25.50;99.90;;;;;;6135296;23;20033;-80
2021/07/18 12:14:38;;;;;;;9.45;2.38;;;25.40;99.90;;;;;;6124476;23;20072;-80
2021/07/18 12:17:06;;;;;;;6.32;2.28;;;25.70;99.90;;;;;;6125227;23;20017;-80
2021/07/18 12:19:34;;;;;;;7.13;2.38;;;25.20;99.90;;;;;;6125546;23;20338;-80
2021/07/18 12:22:10;;;;;;;7.78;2.42;;;25.10;99.90;;;;;;6134822;23;20014;-80
2021/07/18 12:24:42;;;;;;;8.40;2.17;;;25.20;99.90;;;;;;6135324;23;20010;-80
2021/07/18 12:27:09;;;;;;;6.68;2.55;;;25.00;99.90;;;;;;6133338;23;20434;-80
2021/07/18 12:29:44;;;;;;;10.80;2.60;;;24.90;99.90;;;;;;6124717;23;20135;-80
2021/07/18 12:32:11;;;;;;;7.90;2.33;;;24.70;99.90;;;;;;6123801;23;20315;-80
2021/07/18 12:34:52;;;;;;;7.95;2.40;;;24.70;99.90;;;;;;6137718;23;20041;-80
2021/07/18 12:37:20;;;;;;;8.23;2.58;;;24.70;99.90;;;;;;6127914;23;20014;-80
2021/07/18 12:39:49;;;;;;;7.68;2.60;;;24.80;99.90;;;;;;6125470;23;20014;-80
2021/07/18 12:42:26;;;;;;;10.77;2.92;;;24.60;99.90;;;;;;6124672;23;20014;-80
2021/07/18 12:45:02;;;;;;;11.40;3.50;;;24.70;99.90;;;;;;6141865;23;20021;-80
2021/07/18 12:47:32;;;;;;;8.70;2.78;;;24.60;99.90;;;;;;6139611;23;20017;-81
2021/07/18 12:50:18;;;;;;;10.57;2.50;;;24.50;99.90;;;;;;6129779;23;20068;-80
2021/07/18 12:52:59;;;;;;;10.93;2.50;;;24.90;99.90;;;;;;6140028;23;20452;-80
2021/07/18 12:55:35;;;;;;;12.13;2.97;;;24.70;99.90;;;;;;6129852;23;20036;-80
2021/07/18 12:58:41;;;;;;;13.93;3.22;;;24.60;99.90;;;;;;6140259;23;20009;-80
2021/07/18 13:01:10;;;;;;;13.15;2.70;;;24.60;99.90;;;;;;6129049;23;20018;-80
2021/07/18 13:03:37;;;;;;;14.25;3.40;;;24.90;99.90;;;;;;6097179;23;20024;-80
2021/07/18 13:06:16;;;;;;;12.02;3.22;;;24.70;99.90;;;;;;6108385;23;20028;-79
2021/07/18 13:08:43;;;;;;;8.32;2.63;;;24.50;99.90;;;;;;6107926;23;20430;-80
2021/07/18 13:11:37;;;;;;;8.73;2.88;;;24.50;99.90;;;;;;6074464;23;20383;-80
2021/07/18 13:14:32;;;;;;;9.57;2.70;;;24.50;99.90;;;;;;6124084;23;20010;-82
2021/07/18 13:17:23;;;;;;;8.70;2.60;;;24.30;99.90;;;;;;6127345;23;20018;-81
2021/07/18 13:20:06;;;;;;;9.52;3.22;;;24.00;99.90;;;;;;6133310;23;20025;-81
2021/07/18 13:22:34;;;;;;;9.10;2.83;;;24.30;99.90;;;;;;6101273;23;20013;-79
2021/07/18 13:25:04;;;;;;;8.75;2.83;;;24.30;99.90;;;;;;6108183;23;20048;-80
2021/07/18 13:27:36;;;;;;;10.93;3.08;;;24.30;99.90;;;;;;6121884;23;20093;-80
2021/07/18 13:30:09;;;;;;;10.15;2.88;;;24.50;99.90;;;;;;6123126;23;20868;-81
2021/07/18 13:32:44;;;;;;;8.68;2.50;;;24.20;99.90;;;;;;6131595;23;20014;-81
2021/07/18 13:35:14;;;;;;;7.03;2.55;;;24.50;99.90;;;;;;6098931;23;20018;-80
2021/07/18 13:37:58;;;;;;;11.00;2.67;;;24.50;99.90;;;;;;6103503;23;20024;-80
2021/07/18 13:40:36;;;;;;;13.70;2.83;;;24.00;99.90;;;;;;6166009;23;20010;-80
2021/07/18 13:43:12;;;;;;;6.63;2.80;;;23.50;99.90;;;;;;6129553;23;20016;-82
2021/07/18 13:45:43;;;;;;;5.97;2.35;;;23.20;99.90;;;;;;6171484;23;20013;-79
2021/07/18 13:48:13;;;;;;;12.45;2.90;;;23.20;99.90;;;;;;6172154;23;20101;-80
2021/07/18 13:50:41;;;;;;;6.25;2.70;;;23.30;99.90;;;;;;6167766;23;20072;-80
2021/07/18 13:53:08;;;;;;;8.68;3.03;;;23.20;99.90;;;;;;6163839;23;20749;-80
2021/07/18 13:55:34;;;;;;;10.55;2.80;;;23.50;99.90;;;;;;6137436;23;20085;-78
2021/07/18 13:58:01;;;;;;;7.80;3.10;;;23.40;99.90;;;;;;6153418;23;20010;-78
2021/07/18 14:00:27;;;;;;;9.32;2.70;;;23.60;99.90;;;;;;6127851;23;20024;-78
2021/07/18 14:02:53;;;;;;;8.88;2.75;;;23.90;99.90;;;;;;6163184;23;20445;-79
2021/07/18 14:05:19;;;;;;;5.55;2.20;;;24.00;99.90;;;;;;6127795;23;20033;-79
2021/07/18 14:07:45;;;;;;;8.00;2.53;;;23.70;99.90;;;;;;6153523;23;20021;-80
2021/07/18 14:10:12;;;;;;;6.97;2.67;;;23.90;99.90;;;;;;6163082;23;20024;-80